createdAt,value
2022-09-03T00:02:19.102Z,58.90
2022-09-03T00:05:12.081Z,59.60
2022-09-03T00:07:56.776Z,59.30
2022-09-03T00:10:43.696Z,60.00
2022-09-03T00:13:14.143Z,59.40
2022-09-03T00:15:41.107Z,59.40
2022-09-03T00:18:13.928Z,60.40
2022-09-03T00:20:42.717Z,61.20
2022-09-03T00:23:12.873Z,60.00
2022-09-03T00:25:44.758Z,60.70
2022-09-03T00:28:15.207Z,61.20
2022-09-03T00:30:42.683Z,61.30
2022-09-03T00:33:13.711Z,61.70
2022-09-03T00:35:45.689Z,62.10
2022-09-03T00:38:12.349Z,62.30
2022-09-03T00:40:57.533Z,62.20
2022-09-03T00:43:24.118Z,62.70
2022-09-03T00:45:54.249Z,63.00
2022-09-03T00:48:28.275Z,62.80
2022-09-03T00:51:01.987Z,61.20
2022-09-03T00:53:38.321Z,61.20
2022-09-03T00:56:23.305Z,61.10
2022-09-03T00:58:55.659Z,61.90
2022-09-03T01:01:28.227Z,62.60
2022-09-03T01:04:07.616Z,63.50
2022-09-03T01:06:41.898Z,63.00
2022-09-03T01:09:28.821Z,63.30
2022-09-03T01:12:08.091Z,63.80
2022-09-03T01:14:53.570Z,64.20
2022-09-03T01:17:20.179Z,64.00
2022-09-03T01:20:08.833Z,62.70
2022-09-03T01:22:40.758Z,63.00
2022-09-03T01:25:10.916Z,63.20
2022-09-03T01:27:37.641Z,62.90
2022-09-03T01:30:06.559Z,63.40
2022-09-03T01:32:50.923Z,63.80
2022-09-03T01:35:36.469Z,63.20
2022-09-03T01:38:11.510Z,62.80
2022-09-03T01:40:51.832Z,63.40
2022-09-03T01:43:22.846Z,63.30
2022-09-03T01:46:00.841Z,64.00
2022-09-03T01:48:34.570Z,65.50
2022-09-03T01:51:04.156Z,64.50
2022-09-03T01:53:36.839Z,66.20
2022-09-03T01:56:19.555Z,65.60
2022-09-03T01:58:49.532Z,66.50
2022-09-03T02:01:24.889Z,66.50
2022-09-03T02:03:51.607Z,66.00
2022-09-03T02:06:20.722Z,65.80
2022-09-03T02:08:47.402Z,66.80
2022-09-03T02:11:14.023Z,66.30
2022-09-03T02:13:40.796Z,66.00
2022-09-03T02:16:11.448Z,65.80
2022-09-03T02:18:41.667Z,66.90
2022-09-03T02:21:10.170Z,67.00
2022-09-03T02:23:39.371Z,66.50
2022-09-03T02:26:06.872Z,66.40
2022-09-03T02:28:33.896Z,66.30
2022-09-03T02:31:00.742Z,66.90
2022-09-03T02:33:27.932Z,67.40
2022-09-03T02:35:55.280Z,67.20
2022-09-03T02:38:25.698Z,67.70
2022-09-03T02:40:56.238Z,67.60
2022-09-03T02:43:29.823Z,68.80
2022-09-03T02:46:02.440Z,68.40
2022-09-03T02:48:29.085Z,68.20
2022-09-03T02:50:56.039Z,68.30
2022-09-03T02:53:22.955Z,68.00
2022-09-03T02:55:49.785Z,68.50
2022-09-03T02:58:16.419Z,69.10
2022-09-03T03:00:47.531Z,69.20
2022-09-03T03:03:14.087Z,68.50
2022-09-03T03:05:44.905Z,68.90
2022-09-03T03:08:12.266Z,68.30
2022-09-03T03:10:39.026Z,68.40
2022-09-03T03:13:05.667Z,69.00
2022-09-03T03:15:32.289Z,68.80
2022-09-03T03:17:58.919Z,69.60
2022-09-03T03:20:25.556Z,69.60
2022-09-03T03:22:52.220Z,70.00
2022-09-03T03:25:18.989Z,69.70
2022-09-03T03:27:45.686Z,68.90
2022-09-03T03:30:13.094Z,70.10
2022-09-03T03:32:40.133Z,69.70
2022-09-03T03:35:07.373Z,69.20
2022-09-03T03:37:35.872Z,69.90
2022-09-03T03:40:03.179Z,69.80
2022-09-03T03:42:32.660Z,69.60
2022-09-03T03:44:59.414Z,69.40
2022-09-03T03:47:26.017Z,69.00
2022-09-03T03:49:52.774Z,69.10
2022-09-03T03:52:19.514Z,69.20
2022-09-03T03:54:46.275Z,69.20
2022-09-03T03:57:13.229Z,69.70
2022-09-03T03:59:39.849Z,70.00
2022-09-03T04:02:06.948Z,70.30
2022-09-03T04:04:33.611Z,70.70
2022-09-03T04:07:00.195Z,76.00
2022-09-03T04:09:26.786Z,76.70
2022-09-03T04:11:53.466Z,78.10
2022-09-03T04:14:20.086Z,78.90
2022-09-03T04:16:46.985Z,82.40
2022-09-03T04:19:13.789Z,81.20
2022-09-03T04:21:40.411Z,84.90
2022-09-03T04:24:07.153Z,86.70
2022-09-03T04:26:36.411Z,89.30
2022-09-03T04:29:04.330Z,87.70
2022-09-03T04:31:31.895Z,89.60
2022-09-03T04:33:58.576Z,90.40
2022-09-03T04:36:27.766Z,90.90
2022-09-03T04:39:03.724Z,91.10
2022-09-03T04:41:31.435Z,90.40
2022-09-03T04:44:01.562Z,90.80
2022-09-03T04:46:33.298Z,91.20
2022-09-03T04:49:00.731Z,91.10
2022-09-03T04:51:31.220Z,91.30
2022-09-03T04:53:59.725Z,90.40
2022-09-03T04:56:28.432Z,91.40
2022-09-03T04:59:03.050Z,91.20
2022-09-03T05:01:31.907Z,90.70
2022-09-03T05:03:59.163Z,90.50
2022-09-03T05:06:26.241Z,90.80
2022-09-03T05:08:53.887Z,89.70
2022-09-03T05:11:20.894Z,90.10
2022-09-03T05:13:49.027Z,90.20
2022-09-03T05:16:16.113Z,90.10
2022-09-03T05:18:42.980Z,90.00
2022-09-03T05:21:10.671Z,90.10
2022-09-03T05:23:42.387Z,90.80
2022-09-03T05:26:13.279Z,89.80
2022-09-03T05:28:40.703Z,89.00
2022-09-03T05:31:07.442Z,89.50
2022-09-03T05:33:35.699Z,90.00
2022-09-03T05:36:03.272Z,90.80
2022-09-03T05:38:29.974Z,91.00
2022-09-03T05:41:00.583Z,91.20
2022-09-03T05:43:28.067Z,93.40
2022-09-03T05:46:15.395Z,93.50
2022-09-03T05:48:43.122Z,94.70
2022-09-03T05:51:09.692Z,95.10
2022-09-03T05:53:37.532Z,95.40
2022-09-03T05:56:06.298Z,96.00
2022-09-03T05:58:36.647Z,96.20
2022-09-03T06:01:10.695Z,96.10
2022-09-03T06:03:37.398Z,96.30
2022-09-03T06:06:05.358Z,97.70
2022-09-03T06:08:32.342Z,97.40
2022-09-03T06:10:59.511Z,97.50
2022-09-03T06:13:26.160Z,96.60
2022-09-03T06:16:00.095Z,96.30
2022-09-03T06:18:27.090Z,96.20
2022-09-03T06:20:57.067Z,96.10
2022-09-03T06:23:24.321Z,97.40
2022-09-03T06:26:04.490Z,98.00
2022-09-03T06:28:36.043Z,97.60
2022-09-03T06:31:03.427Z,97.10
2022-09-03T06:33:31.511Z,97.10
2022-09-03T06:35:59.439Z,96.50
2022-09-03T06:38:31.907Z,97.50
2022-09-03T06:41:03.166Z,97.40
2022-09-03T06:43:31.235Z,97.00
2022-09-03T06:45:59.110Z,97.60
2022-09-03T06:48:26.622Z,96.50
2022-09-03T06:51:02.581Z,98.20
2022-09-03T06:53:33.322Z,98.00
2022-09-03T06:56:01.190Z,96.60
2022-09-03T06:58:31.966Z,96.40
2022-09-03T07:01:06.842Z,97.10
2022-09-03T07:03:34.139Z,96.40
2022-09-03T07:06:10.578Z,96.60
2022-09-03T07:08:37.286Z,98.30
2022-09-03T07:11:09.131Z,98.50
2022-09-03T07:13:36.495Z,97.50
2022-09-03T07:16:04.387Z,98.60
2022-09-03T07:18:31.885Z,99.20
2022-09-03T07:20:59.954Z,98.60
2022-09-03T07:23:26.700Z,98.70
2022-09-03T07:25:56.945Z,98.70
2022-09-03T07:28:24.840Z,98.00
2022-09-03T07:30:52.041Z,98.40
2022-09-03T07:33:19.092Z,98.90
2022-09-03T07:35:46.312Z,99.00
2022-09-03T07:38:24.007Z,98.70
2022-09-03T07:40:57.636Z,98.60
2022-09-03T07:43:24.591Z,98.30
2022-09-03T07:45:51.879Z,99.60
2022-09-03T07:48:18.959Z,99.60
2022-09-03T07:50:47.852Z,98.80
2022-09-03T07:53:16.926Z,99.80
2022-09-03T07:55:44.639Z,99.70
2022-09-03T07:58:12.527Z,99.60
2022-09-03T08:00:39.616Z,99.60
2022-09-03T08:03:08.522Z,98.00
2022-09-03T08:05:36.369Z,97.30
2022-09-03T08:08:03.768Z,98.20
2022-09-03T08:10:36.147Z,98.00
2022-09-03T08:13:05.624Z,99.10
2022-09-03T08:15:32.811Z,98.30
2022-09-03T08:18:03.750Z,98.50
2022-09-03T08:20:32.946Z,98.70
2022-09-03T08:23:02.923Z,99.40
2022-09-03T08:25:29.871Z,98.60
2022-09-03T08:27:58.659Z,97.70
2022-09-03T08:30:26.531Z,97.50
2022-09-03T08:32:53.366Z,97.00
2022-09-03T08:35:21.491Z,98.10
2022-09-03T08:37:54.807Z,98.40
2022-09-03T08:40:24.247Z,98.20
2022-09-03T08:43:09.821Z,97.90
2022-09-03T08:45:38.162Z,97.10
2022-09-03T08:48:10.413Z,96.90
2022-09-03T08:50:49.224Z,97.40
2022-09-03T08:53:39.078Z,97.00
2022-09-03T08:56:25.714Z,96.10
2022-09-03T08:58:52.308Z,95.50
2022-09-03T09:01:37.260Z,95.70
2022-09-03T09:04:03.983Z,95.30
2022-09-03T09:06:31.199Z,96.00
2022-09-03T09:09:17.659Z,96.30
2022-09-03T09:12:03.388Z,95.60
2022-09-03T09:14:40.189Z,93.80
2022-09-03T09:17:28.201Z,91.60
2022-09-03T09:20:04.846Z,88.00
2022-09-03T09:22:41.856Z,87.00
2022-09-03T09:25:16.922Z,86.20
2022-09-03T09:28:03.519Z,85.90
2022-09-03T09:30:31.373Z,87.00
2022-09-03T09:33:00.807Z,90.60
2022-09-03T09:35:27.480Z,90.90
2022-09-03T09:37:55.315Z,90.70
2022-09-03T09:40:35.218Z,91.00
2022-09-03T09:43:04.629Z,93.00
2022-09-03T09:45:34.206Z,92.40
2022-09-03T09:48:01.998Z,93.40
2022-09-03T09:50:28.775Z,94.00
2022-09-03T09:53:14.446Z,95.90
2022-09-03T09:55:54.779Z,94.60
2022-09-03T09:58:23.562Z,95.80
2022-09-03T10:01:04.379Z,94.60
2022-09-03T10:03:35.673Z,95.40
2022-09-03T10:06:47.995Z,95.00
2022-09-03T10:09:16.108Z,94.30
2022-09-03T10:11:45.180Z,95.10
2022-09-03T10:14:35.148Z,95.10
2022-09-03T10:17:22.160Z,93.90
2022-09-03T10:20:21.586Z,93.90
2022-09-03T10:22:56.925Z,94.00
2022-09-03T10:25:26.552Z,94.50
2022-09-03T10:27:56.760Z,94.30
2022-09-03T10:30:26.581Z,93.90
2022-09-03T10:33:10.806Z,95.20
2022-09-03T10:35:45.801Z,93.60
2022-09-03T10:38:17.753Z,94.30
2022-09-03T10:40:55.097Z,93.90
2022-09-03T10:43:41.571Z,93.40
2022-09-03T10:46:11.212Z,94.50
2022-09-03T10:48:41.785Z,94.90
2022-09-03T10:51:12.169Z,92.20
2022-09-03T10:53:50.078Z,89.60
2022-09-03T10:56:17.418Z,84.20
2022-09-03T10:58:44.123Z,76.60
2022-09-03T11:01:26.876Z,77.40
2022-09-03T11:04:01.255Z,81.90
2022-09-03T11:06:35.567Z,82.00
2022-09-03T11:09:14.451Z,83.60
2022-09-03T11:11:44.187Z,86.20
2022-09-03T11:14:13.568Z,79.10
2022-09-03T11:16:43.744Z,76.60
2022-09-03T11:19:13.094Z,74.70
2022-09-03T11:21:41.953Z,66.00
2022-09-03T11:24:13.999Z,67.20
2022-09-03T11:26:44.804Z,69.70
2022-09-03T11:29:25.239Z,73.30
2022-09-03T11:31:58.637Z,74.30
2022-09-03T11:34:32.673Z,76.90
2022-09-03T11:37:07.579Z,79.00
2022-09-03T11:39:39.588Z,80.10
2022-09-03T11:42:10.609Z,78.20
2022-09-03T11:44:50.990Z,76.90
2022-09-03T11:47:25.031Z,73.60
2022-09-03T11:49:52.851Z,70.10
2022-09-03T11:52:29.739Z,71.50
2022-09-03T11:54:56.387Z,78.50
2022-09-03T11:57:26.179Z,74.80
2022-09-03T11:59:52.971Z,76.90
2022-09-03T12:02:22.645Z,79.90
2022-09-03T12:05:07.199Z,80.90
2022-09-03T12:07:52.805Z,82.80
2022-09-03T12:10:32.508Z,81.70
2022-09-03T12:13:17.023Z,83.40
2022-09-03T12:15:56.122Z,87.10
2022-09-03T12:18:24.689Z,85.70
2022-09-03T12:20:59.957Z,79.20
2022-09-03T12:23:42.365Z,73.60
2022-09-03T12:26:14.961Z,64.20
2022-09-03T12:28:49.142Z,65.70
2022-09-03T12:31:21.552Z,69.20
2022-09-03T12:33:49.187Z,67.80
2022-09-03T12:36:16.357Z,71.40
2022-09-03T12:39:09.892Z,71.20
2022-09-03T12:41:31.223Z,67.20
2022-09-03T12:43:59.867Z,66.00
2022-09-03T12:46:33.624Z,64.40
2022-09-03T12:52:05.970Z,59.60
2022-09-03T12:54:34.173Z,59.50
2022-09-03T12:57:01.223Z,62.70
2022-09-03T12:59:28.702Z,67.10
2022-09-03T13:01:58.349Z,68.30
2022-09-03T13:04:27.055Z,66.90
2022-09-03T13:06:56.878Z,65.20
2022-09-03T13:09:24.142Z,63.70
2022-09-03T13:11:52.528Z,63.30
2022-09-03T13:14:20.219Z,60.10
2022-09-03T13:16:47.376Z,59.90
2022-09-03T13:19:32.360Z,57.50
2022-09-03T13:21:58.929Z,56.60
2022-09-03T13:24:32.362Z,57.40
2022-09-03T13:27:06.113Z,57.80
2022-09-03T13:29:43.805Z,57.60
2022-09-03T13:32:26.406Z,55.30
2022-09-03T13:34:57.225Z,55.90
2022-09-03T13:37:23.955Z,58.60
2022-09-03T13:39:55.889Z,60.70
2022-09-03T13:42:35.798Z,61.70
2022-09-03T13:45:11.247Z,60.00
2022-09-03T13:47:37.843Z,56.60
2022-09-03T13:50:22.782Z,55.50
2022-09-03T13:52:57.384Z,57.90
2022-09-03T13:55:28.795Z,58.90
2022-09-03T13:58:06.999Z,61.50
2022-09-03T14:00:40.180Z,62.00
2022-09-03T14:03:13.186Z,63.30
2022-09-03T14:05:58.821Z,66.40
2022-09-03T14:08:28.475Z,67.90
2022-09-03T14:10:59.742Z,67.30
2022-09-03T14:13:38.579Z,68.40
2022-09-03T14:16:05.855Z,70.40
2022-09-03T14:18:39.709Z,71.20
2022-09-03T14:21:18.054Z,74.40
2022-09-03T14:23:51.283Z,73.70
2022-09-03T14:26:35.934Z,77.20
2022-09-03T14:29:11.587Z,79.60
2022-09-03T14:31:40.943Z,80.50
2022-09-03T14:34:12.904Z,79.00
2022-09-03T14:36:58.540Z,84.20
2022-09-03T14:39:32.586Z,81.50
2022-09-03T14:42:18.246Z,93.70
2022-09-03T14:45:03.826Z,99.90
2022-09-03T14:47:30.574Z,99.90
2022-09-03T14:50:16.188Z,99.90
2022-09-03T14:52:56.098Z,99.90
2022-09-03T14:55:29.531Z,99.90
2022-09-03T14:57:56.233Z,99.90
2022-09-03T15:00:34.088Z,99.90
2022-09-03T15:03:20.415Z,99.90
2022-09-03T15:05:57.646Z,99.90
2022-09-03T15:08:42.924Z,99.90
2022-09-03T15:11:17.357Z,99.90
2022-09-03T15:13:50.167Z,99.90
2022-09-03T15:16:36.062Z,99.90
2022-09-03T15:19:25.791Z,99.90
2022-09-03T15:21:52.509Z,99.90
2022-09-03T15:24:30.082Z,99.90
2022-09-03T15:27:11.091Z,99.90
2022-09-03T15:29:56.792Z,99.90
2022-09-03T15:32:26.861Z,99.90
2022-09-03T15:35:04.114Z,99.90
2022-09-03T15:37:33.651Z,99.90
2022-09-03T15:40:16.588Z,99.90
2022-09-03T15:42:44.445Z,99.90
2022-09-03T15:45:19.438Z,99.90
2022-09-03T15:47:51.530Z,99.90
2022-09-03T15:50:35.250Z,99.90
2022-09-03T15:53:11.080Z,99.90
2022-09-03T15:55:39.271Z,99.90
2022-09-03T15:58:10.454Z,99.90
2022-09-03T16:00:46.628Z,99.90
2022-09-03T16:03:23.825Z,99.90
2022-09-03T16:05:55.342Z,99.90
2022-09-03T16:08:32.583Z,99.90
2022-09-03T16:11:08.881Z,99.90
2022-09-03T16:13:43.729Z,99.90
2022-09-03T16:16:12.942Z,99.90
2022-09-03T16:18:44.612Z,99.90
2022-09-03T16:21:28.918Z,99.90
2022-09-03T16:23:58.971Z,99.90
2022-09-03T16:26:36.909Z,99.90
2022-09-03T16:29:08.451Z,99.90
2022-09-03T16:31:41.274Z,99.90
2022-09-03T16:34:32.650Z,99.90
2022-09-03T16:37:07.764Z,99.90
2022-09-03T16:39:57.870Z,99.90
2022-09-03T16:42:32.277Z,99.90
2022-09-03T16:45:00.025Z,99.90
2022-09-03T16:47:41.266Z,99.90
2022-09-03T16:50:07.870Z,99.90
2022-09-03T16:52:54.223Z,99.90
2022-09-03T16:55:27.727Z,99.90
2022-09-03T16:57:59.729Z,99.90
2022-09-03T17:00:37.390Z,99.90
2022-09-03T17:03:12.328Z,99.90
2022-09-03T17:05:57.859Z,99.90
2022-09-03T17:08:31.715Z,99.90
2022-09-03T17:11:17.202Z,99.90
2022-09-03T17:14:02.733Z,99.90
2022-09-03T17:16:53.285Z,99.90
2022-09-03T17:19:39.151Z,99.90
2022-09-03T17:22:19.840Z,99.90
2022-09-03T17:24:54.696Z,99.90
2022-09-03T17:27:28.490Z,99.90
2022-09-03T17:30:00.850Z,99.90
2022-09-03T17:32:46.747Z,99.90
2022-09-03T17:35:19.709Z,99.90
2022-09-03T17:38:16.017Z,99.90
2022-09-03T17:40:56.008Z,99.90
2022-09-03T17:43:33.023Z,99.90
2022-09-03T17:46:09.279Z,99.90
2022-09-03T17:48:52.371Z,99.90
2022-09-03T17:51:22.088Z,99.90
2022-09-03T17:53:52.035Z,99.90
2022-09-03T17:56:22.736Z,99.90
2022-09-03T17:58:54.084Z,99.90
2022-09-03T18:01:26.109Z,99.90
2022-09-03T18:03:54.533Z,99.90
2022-09-03T18:06:34.147Z,99.90
2022-09-03T18:09:01.216Z,99.90
2022-09-03T18:11:33.918Z,99.90
2022-09-03T18:14:00.765Z,99.90
2022-09-03T18:16:28.825Z,99.90
2022-09-03T18:19:19.200Z,99.90
2022-09-03T18:22:06.229Z,99.90
2022-09-03T18:25:01.920Z,99.90
2022-09-03T18:27:52.260Z,99.90
2022-09-03T18:30:37.654Z,99.90
2022-09-03T18:33:23.089Z,99.90
2022-09-03T18:36:08.329Z,99.90
2022-09-03T18:38:55.262Z,99.90
2022-09-03T18:41:43.399Z,99.90
2022-09-03T18:44:34.500Z,99.90
2022-09-03T18:48:02.197Z,99.90
2022-09-03T18:50:44.076Z,99.90
2022-09-03T18:53:50.072Z,99.90
2022-09-03T18:56:35.591Z,99.90
2022-09-03T18:59:37.043Z,99.90
2022-09-03T19:02:29.264Z,99.90
2022-09-03T19:05:18.210Z,99.90
2022-09-03T19:08:08.469Z,99.90
2022-09-03T19:11:07.423Z,99.90
2022-09-03T19:13:54.630Z,99.90
2022-09-03T19:16:49.491Z,99.90
2022-09-03T19:19:59.223Z,99.90
2022-09-03T19:22:54.612Z,99.90
2022-09-03T19:25:40.427Z,99.90
2022-09-03T19:28:31.369Z,99.90
2022-09-03T19:31:35.582Z,99.90
2022-09-03T19:34:32.843Z,99.90
2022-09-03T19:37:23.201Z,99.90
2022-09-03T19:40:24.146Z,99.90
2022-09-03T19:43:16.137Z,99.90
2022-09-03T19:46:01.234Z,99.90
2022-09-03T19:49:05.325Z,99.90
2022-09-03T19:51:58.678Z,99.90
2022-09-03T19:54:45.192Z,99.90
2022-09-03T19:57:32.246Z,99.90
2022-09-03T20:00:17.899Z,99.90
2022-09-03T20:03:14.786Z,99.90
2022-09-03T20:06:00.239Z,99.90
2022-09-03T20:08:45.791Z,99.90
2022-09-03T20:11:17.527Z,99.90
2022-09-03T20:14:03.059Z,99.90
2022-09-03T20:16:40.107Z,99.90
2022-09-03T20:19:21.354Z,99.90
2022-09-03T20:21:52.499Z,99.90
2022-09-03T20:24:21.157Z,99.90
2022-09-03T20:27:05.223Z,99.90
2022-09-03T20:29:34.936Z,99.90
2022-09-03T20:32:13.251Z,99.90
2022-09-03T20:34:49.923Z,99.90
2022-09-03T20:37:36.158Z,99.90
2022-09-03T20:40:08.594Z,99.90
2022-09-03T20:42:54.043Z,99.90
2022-09-03T20:45:26.654Z,99.90
2022-09-03T20:48:05.565Z,99.90
2022-09-03T20:50:45.355Z,99.90
2022-09-03T20:53:21.124Z,99.90
2022-09-03T20:55:54.759Z,99.90
2022-09-03T20:58:30.097Z,99.90
2022-09-03T21:01:03.345Z,99.90
2022-09-03T21:03:34.027Z,99.90
2022-09-03T21:06:26.818Z,99.90
2022-09-03T21:08:53.545Z,99.90
2022-09-03T21:11:20.080Z,99.90
2022-09-03T21:14:09.827Z,99.90
2022-09-03T21:16:54.533Z,99.90
2022-09-03T21:19:43.363Z,99.90
2022-09-03T21:22:39.155Z,99.90
2022-09-03T21:25:07.411Z,99.90
2022-09-03T21:27:37.344Z,99.90
2022-09-03T21:30:06.195Z,99.90
2022-09-03T21:32:53.924Z,99.90
2022-09-03T21:35:27.431Z,99.90
2022-09-03T21:38:07.815Z,99.90
2022-09-03T21:40:42.918Z,99.90
2022-09-03T21:43:13.275Z,99.90
2022-09-03T21:45:57.008Z,99.90
2022-09-03T21:48:33.794Z,99.90
2022-09-03T21:51:01.187Z,99.90
2022-09-03T21:53:44.205Z,99.90
2022-09-03T21:56:30.443Z,99.90
2022-09-03T21:59:06.983Z,99.90
2022-09-03T22:01:49.071Z,99.90
2022-09-03T22:04:15.751Z,99.90
2022-09-03T22:06:45.505Z,99.90
2022-09-03T22:09:15.132Z,99.90
2022-09-03T22:11:52.250Z,99.90
2022-09-03T22:14:21.194Z,99.90
2022-09-03T22:16:56.779Z,99.90
2022-09-03T22:19:23.412Z,99.90
2022-09-03T22:21:59.609Z,99.90
2022-09-03T22:24:34.318Z,99.90
2022-09-03T22:27:18.325Z,99.90
2022-09-03T22:29:54.854Z,99.90
2022-09-03T22:32:33.633Z,99.90
2022-09-03T22:35:05.431Z,99.90
2022-09-03T22:37:48.460Z,99.90
2022-09-03T22:40:44.531Z,99.90
2022-09-03T22:43:15.610Z,99.90
2022-09-03T22:45:48.428Z,99.90
2022-09-03T22:48:15.046Z,99.90
2022-09-03T22:50:50.689Z,99.90
2022-09-03T22:53:20.354Z,99.90
2022-09-03T22:56:07.231Z,99.90
2022-09-03T22:59:07.054Z,99.90
2022-09-03T23:01:36.475Z,99.90
2022-09-03T23:04:05.925Z,99.90
2022-09-03T23:06:34.154Z,99.90
2022-09-03T23:09:08.859Z,99.90
2022-09-03T23:11:39.506Z,99.90
2022-09-03T23:14:14.111Z,99.90
2022-09-03T23:16:42.691Z,99.90
2022-09-03T23:22:03.426Z,99.90
2022-09-03T23:24:36.614Z,99.90
2022-09-03T23:27:06.319Z,99.90
2022-09-03T23:29:41.639Z,99.90
2022-09-03T23:32:09.372Z,99.90
2022-09-03T23:34:36.508Z,99.90
2022-09-03T23:37:40.053Z,99.90
2022-09-03T23:40:23.291Z,99.90
2022-09-03T23:42:58.641Z,99.90
2022-09-03T23:45:25.269Z,99.90
2022-09-03T23:48:02.350Z,99.90
2022-09-03T23:50:33.328Z,99.90
2022-09-03T23:53:16.319Z,99.90
2022-09-03T23:56:01.709Z,99.90
2022-09-03T23:58:34.269Z,99.90
